sensor_id;sensor_type;location;lat;lon;timestamp;P1;durP1;ratioP1;P2;durP2;ratioP2
51556;SDS011;38766;53.194;5.532;2023-12-28T00:02:04;24.05;;;5.28;;
51556;SDS011;38766;53.194;5.532;2023-12-28T00:04:30;20.95;;;4.90;;
51556;SDS011;38766;53.194;5.532;2023-12-28T00:06:56;23.00;;;5.32;;
51556;SDS011;38766;53.194;5.532;2023-12-28T00:09:21;20.88;;;5.00;;
51556;SDS011;38766;53.194;5.532;2023-12-28T00:11:47;32.13;;;6.40;;
51556;SDS011;38766;53.194;5.532;2023-12-28T00:14:13;28.00;;;4.78;;
51556;SDS011;38766;53.194;5.532;2023-12-28T00:16:38;26.08;;;4.90;;
51556;SDS011;38766;53.194;5.532;2023-12-28T00:19:04;23.75;;;4.95;;
51556;SDS011;38766;53.194;5.532;2023-12-28T00:21:30;20.83;;;4.68;;
51556;SDS011;38766;53.194;5.532;2023-12-28T00:23:56;23.50;;;4.40;;
51556;SDS011;38766;53.194;5.532;2023-12-28T00:26:21;23.20;;;5.13;;
51556;SDS011;38766;53.194;5.532;2023-12-28T00:28:47;24.17;;;5.20;;
51556;SDS011;38766;53.194;5.532;2023-12-28T00:31:13;25.23;;;6.32;;
51556;SDS011;38766;53.194;5.532;2023-12-28T00:33:39;24.63;;;4.72;;
51556;SDS011;38766;53.194;5.532;2023-12-28T00:36:05;26.05;;;5.50;;
51556;SDS011;38766;53.194;5.532;2023-12-28T00:38:30;30.35;;;5.25;;
51556;SDS011;38766;53.194;5.532;2023-12-28T00:40:57;31.58;;;5.78;;
51556;SDS011;38766;53.194;5.532;2023-12-28T00:43:22;32.17;;;5.78;;
51556;SDS011;38766;53.194;5.532;2023-12-28T00:45:48;32.60;;;6.38;;
51556;SDS011;38766;53.194;5.532;2023-12-28T00:48:14;24.95;;;5.30;;
51556;SDS011;38766;53.194;5.532;2023-12-28T00:50:39;27.33;;;5.38;;
51556;SDS011;38766;53.194;5.532;2023-12-28T00:53:05;25.58;;;5.18;;
51556;SDS011;38766;53.194;5.532;2023-12-28T00:55:31;30.85;;;4.90;;
51556;SDS011;38766;53.194;5.532;2023-12-28T00:57:56;20.63;;;4.38;;
51556;SDS011;38766;53.194;5.532;2023-12-28T01:00:22;23.95;;;5.30;;
51556;SDS011;38766;53.194;5.532;2023-12-28T01:02:48;23.83;;;5.55;;
51556;SDS011;38766;53.194;5.532;2023-12-28T01:05:17;30.10;;;5.18;;
51556;SDS011;38766;53.194;5.532;2023-12-28T01:07:42;25.23;;;4.57;;
51556;SDS011;38766;53.194;5.532;2023-12-28T01:10:08;33.85;;;5.28;;
51556;SDS011;38766;53.194;5.532;2023-12-28T01:12:34;24.73;;;5.85;;
51556;SDS011;38766;53.194;5.532;2023-12-28T01:14:59;27.70;;;4.93;;
51556;SDS011;38766;53.194;5.532;2023-12-28T01:17:25;25.42;;;4.85;;
51556;SDS011;38766;53.194;5.532;2023-12-28T01:19:50;29.08;;;5.53;;
51556;SDS011;38766;53.194;5.532;2023-12-28T01:22:16;24.15;;;5.05;;
51556;SDS011;38766;53.194;5.532;2023-12-28T01:24:42;18.27;;;5.18;;
51556;SDS011;38766;53.194;5.532;2023-12-28T01:27:10;32.50;;;5.65;;
51556;SDS011;38766;53.194;5.532;2023-12-28T01:29:36;25.25;;;5.28;;
51556;SDS011;38766;53.194;5.532;2023-12-28T01:32:03;23.55;;;4.60;;
51556;SDS011;38766;53.194;5.532;2023-12-28T01:34:29;29.75;;;6.72;;
51556;SDS011;38766;53.194;5.532;2023-12-28T01:36:54;23.20;;;5.13;;
51556;SDS011;38766;53.194;5.532;2023-12-28T01:39:23;26.42;;;5.82;;
51556;SDS011;38766;53.194;5.532;2023-12-28T01:41:48;27.55;;;6.00;;
51556;SDS011;38766;53.194;5.532;2023-12-28T01:44:14;25.05;;;4.80;;
51556;SDS011;38766;53.194;5.532;2023-12-28T01:46:40;28.67;;;6.95;;
51556;SDS011;38766;53.194;5.532;2023-12-28T01:49:06;35.70;;;6.28;;
51556;SDS011;38766;53.194;5.532;2023-12-28T01:51:32;27.35;;;5.40;;
51556;SDS011;38766;53.194;5.532;2023-12-28T01:53:58;26.67;;;5.38;;
51556;SDS011;38766;53.194;5.532;2023-12-28T01:56:24;21.85;;;4.68;;
51556;SDS011;38766;53.194;5.532;2023-12-28T01:58:50;21.80;;;5.35;;
51556;SDS011;38766;53.194;5.532;2023-12-28T02:01:19;26.35;;;5.85;;
51556;SDS011;38766;53.194;5.532;2023-12-28T02:03:45;28.15;;;6.65;;
51556;SDS011;38766;53.194;5.532;2023-12-28T02:06:11;26.52;;;6.00;;
51556;SDS011;38766;53.194;5.532;2023-12-28T02:08:41;29.95;;;5.10;;
51556;SDS011;38766;53.194;5.532;2023-12-28T02:11:07;28.67;;;5.63;;
51556;SDS011;38766;53.194;5.532;2023-12-28T02:13:32;22.92;;;4.53;;
51556;SDS011;38766;53.194;5.532;2023-12-28T02:16:01;25.17;;;6.50;;
51556;SDS011;38766;53.194;5.532;2023-12-28T02:18:34;27.98;;;5.60;;
51556;SDS011;38766;53.194;5.532;2023-12-28T02:21:04;18.08;;;4.88;;
51556;SDS011;38766;53.194;5.532;2023-12-28T02:23:34;34.45;;;5.82;;
51556;SDS011;38766;53.194;5.532;2023-12-28T02:26:00;25.50;;;5.20;;
51556;SDS011;38766;53.194;5.532;2023-12-28T02:28:26;25.77;;;4.95;;
51556;SDS011;38766;53.194;5.532;2023-12-28T02:30:51;21.38;;;5.05;;
51556;SDS011;38766;53.194;5.532;2023-12-28T02:36:09;25.15;;;5.13;;
51556;SDS011;38766;53.194;5.532;2023-12-28T02:38:36;24.55;;;4.38;;
51556;SDS011;38766;53.194;5.532;2023-12-28T02:41:04;22.38;;;4.65;;
51556;SDS011;38766;53.194;5.532;2023-12-28T02:43:30;26.20;;;4.45;;
51556;SDS011;38766;53.194;5.532;2023-12-28T02:45:58;28.35;;;4.97;;
51556;SDS011;38766;53.194;5.532;2023-12-28T02:48:23;19.45;;;3.95;;
51556;SDS011;38766;53.194;5.532;2023-12-28T02:50:51;26.88;;;5.03;;
51556;SDS011;38766;53.194;5.532;2023-12-28T02:53:17;17.17;;;4.90;;
51556;SDS011;38766;53.194;5.532;2023-12-28T02:55:42;17.77;;;4.22;;
51556;SDS011;38766;53.194;5.532;2023-12-28T02:58:08;15.65;;;4.25;;
51556;SDS011;38766;53.194;5.532;2023-12-28T03:00:33;27.55;;;4.95;;
51556;SDS011;38766;53.194;5.532;2023-12-28T03:02:59;15.65;;;3.88;;
51556;SDS011;38766;53.194;5.532;2023-12-28T03:05:25;20.52;;;3.85;;
51556;SDS011;38766;53.194;5.532;2023-12-28T03:07:52;19.30;;;4.82;;
51556;SDS011;38766;53.194;5.532;2023-12-28T03:10:20;19.02;;;4.22;;
51556;SDS011;38766;53.194;5.532;2023-12-28T03:12:46;23.65;;;4.95;;
51556;SDS011;38766;53.194;5.532;2023-12-28T03:15:12;16.13;;;3.65;;
51556;SDS011;38766;53.194;5.532;2023-12-28T03:17:38;21.48;;;4.07;;
51556;SDS011;38766;53.194;5.532;2023-12-28T03:20:04;20.75;;;4.47;;
51556;SDS011;38766;53.194;5.532;2023-12-28T03:22:30;19.35;;;5.22;;
51556;SDS011;38766;53.194;5.532;2023-12-28T03:24:55;21.63;;;4.53;;
51556;SDS011;38766;53.194;5.532;2023-12-28T03:27:21;20.77;;;4.53;;
51556;SDS011;38766;53.194;5.532;2023-12-28T03:29:47;17.30;;;4.65;;
51556;SDS011;38766;53.194;5.532;2023-12-28T03:32:15;18.17;;;3.85;;
51556;SDS011;38766;53.194;5.532;2023-12-28T03:34:40;20.88;;;4.63;;
51556;SDS011;38766;53.194;5.532;2023-12-28T03:37:06;19.30;;;4.32;;
51556;SDS011;38766;53.194;5.532;2023-12-28T03:39:32;32.22;;;5.20;;
51556;SDS011;38766;53.194;5.532;2023-12-28T03:41:59;22.40;;;4.45;;
51556;SDS011;38766;53.194;5.532;2023-12-28T03:44:24;17.02;;;3.80;;
51556;SDS011;38766;53.194;5.532;2023-12-28T03:46:52;18.58;;;4.60;;
51556;SDS011;38766;53.194;5.532;2023-12-28T03:49:18;21.10;;;4.47;;
51556;SDS011;38766;53.194;5.532;2023-12-28T03:51:45;25.42;;;4.78;;
51556;SDS011;38766;53.194;5.532;2023-12-28T03:54:12;22.55;;;4.85;;
51556;SDS011;38766;53.194;5.532;2023-12-28T03:56:40;26.15;;;5.60;;
51556;SDS011;38766;53.194;5.532;2023-12-28T03:59:08;24.45;;;5.32;;
51556;SDS011;38766;53.194;5.532;2023-12-28T04:01:34;23.05;;;4.78;;
51556;SDS011;38766;53.194;5.532;2023-12-28T04:03:59;27.63;;;4.57;;
51556;SDS011;38766;53.194;5.532;2023-12-28T04:06:25;26.23;;;5.18;;
51556;SDS011;38766;53.194;5.532;2023-12-28T04:08:51;20.83;;;5.25;;
51556;SDS011;38766;53.194;5.532;2023-12-28T04:11:17;22.23;;;4.60;;
51556;SDS011;38766;53.194;5.532;2023-12-28T04:13:42;24.42;;;5.05;;
51556;SDS011;38766;53.194;5.532;2023-12-28T04:16:11;20.00;;;4.93;;
51556;SDS011;38766;53.194;5.532;2023-12-28T04:18:37;32.38;;;5.18;;
51556;SDS011;38766;53.194;5.532;2023-12-28T04:21:03;25.13;;;4.55;;
51556;SDS011;38766;53.194;5.532;2023-12-28T04:23:29;27.35;;;5.40;;
51556;SDS011;38766;53.194;5.532;2023-12-28T04:25:54;35.90;;;5.50;;
51556;SDS011;38766;53.194;5.532;2023-12-28T04:28:20;22.10;;;5.38;;
51556;SDS011;38766;53.194;5.532;2023-12-28T04:30:45;28.25;;;5.50;;
51556;SDS011;38766;53.194;5.532;2023-12-28T04:33:11;29.52;;;5.03;;
51556;SDS011;38766;53.194;5.532;2023-12-28T04:35:37;22.63;;;4.55;;
51556;SDS011;38766;53.194;5.532;2023-12-28T04:38:02;35.05;;;5.55;;
51556;SDS011;38766;53.194;5.532;2023-12-28T04:40:28;25.50;;;5.15;;
51556;SDS011;38766;53.194;5.532;2023-12-28T04:42:54;33.50;;;5.32;;
51556;SDS011;38766;53.194;5.532;2023-12-28T04:45:20;25.40;;;5.05;;
51556;SDS011;38766;53.194;5.532;2023-12-28T04:47:47;33.72;;;5.88;;
51556;SDS011;38766;53.194;5.532;2023-12-28T04:50:13;27.73;;;4.65;;
51556;SDS011;38766;53.194;5.532;2023-12-28T04:52:38;29.27;;;5.30;;
51556;SDS011;38766;53.194;5.532;2023-12-28T04:55:06;31.33;;;5.47;;
51556;SDS011;38766;53.194;5.532;2023-12-28T04:57:31;22.75;;;5.78;;
51556;SDS011;38766;53.194;5.532;2023-12-28T04:59:57;27.77;;;6.30;;
51556;SDS011;38766;53.194;5.532;2023-12-28T05:02:23;28.75;;;5.88;;
51556;SDS011;38766;53.194;5.532;2023-12-28T05:04:48;28.33;;;5.68;;
51556;SDS011;38766;53.194;5.532;2023-12-28T05:07:14;28.20;;;5.25;;
51556;SDS011;38766;53.194;5.532;2023-12-28T05:09:39;28.98;;;5.28;;
51556;SDS011;38766;53.194;5.532;2023-12-28T05:12:06;24.98;;;5.20;;
51556;SDS011;38766;53.194;5.532;2023-12-28T05:14:31;36.90;;;6.32;;
51556;SDS011;38766;53.194;5.532;2023-12-28T05:16:58;29.75;;;6.63;;
51556;SDS011;38766;53.194;5.532;2023-12-28T05:19:23;32.03;;;5.80;;
51556;SDS011;38766;53.194;5.532;2023-12-28T05:21:49;28.83;;;5.75;;
51556;SDS011;38766;53.194;5.532;2023-12-28T05:24:14;30.60;;;6.38;;
51556;SDS011;38766;53.194;5.532;2023-12-28T05:26:40;35.60;;;6.60;;
51556;SDS011;38766;53.194;5.532;2023-12-28T05:29:06;28.88;;;5.18;;
51556;SDS011;38766;53.194;5.532;2023-12-28T05:31:31;28.92;;;5.75;;
51556;SDS011;38766;53.194;5.532;2023-12-28T05:33:57;25.13;;;5.18;;
51556;SDS011;38766;53.194;5.532;2023-12-28T05:36:23;29.85;;;6.35;;
51556;SDS011;38766;53.194;5.532;2023-12-28T05:38:49;36.88;;;5.75;;
51556;SDS011;38766;53.194;5.532;2023-12-28T05:41:15;36.28;;;7.20;;
51556;SDS011;38766;53.194;5.532;2023-12-28T05:43:41;30.67;;;5.65;;
51556;SDS011;38766;53.194;5.532;2023-12-28T05:46:07;23.98;;;4.88;;
51556;SDS011;38766;53.194;5.532;2023-12-28T05:48:33;30.52;;;7.35;;
51556;SDS011;38766;53.194;5.532;2023-12-28T05:50:59;29.88;;;5.75;;
51556;SDS011;38766;53.194;5.532;2023-12-28T05:53:25;36.90;;;6.13;;
51556;SDS011;38766;53.194;5.532;2023-12-28T05:55:52;34.28;;;6.15;;
51556;SDS011;38766;53.194;5.532;2023-12-28T05:58:17;36.55;;;6.82;;
51556;SDS011;38766;53.194;5.532;2023-12-28T06:00:43;33.15;;;6.10;;
51556;SDS011;38766;53.194;5.532;2023-12-28T06:03:08;29.55;;;6.03;;
51556;SDS011;38766;53.194;5.532;2023-12-28T06:05:34;32.97;;;6.13;;
51556;SDS011;38766;53.194;5.532;2023-12-28T06:08:00;34.22;;;5.85;;
51556;SDS011;38766;53.194;5.532;2023-12-28T06:10:25;25.65;;;6.57;;
51556;SDS011;38766;53.194;5.532;2023-12-28T06:12:51;28.73;;;6.63;;
51556;SDS011;38766;53.194;5.532;2023-12-28T06:15:16;34.92;;;6.07;;
51556;SDS011;38766;53.194;5.532;2023-12-28T06:17:42;29.95;;;5.68;;
51556;SDS011;38766;53.194;5.532;2023-12-28T06:20:08;27.63;;;6.68;;
51556;SDS011;38766;53.194;5.532;2023-12-28T06:22:38;31.42;;;6.88;;
51556;SDS011;38766;53.194;5.532;2023-12-28T06:25:04;35.30;;;6.72;;
51556;SDS011;38766;53.194;5.532;2023-12-28T06:27:32;34.72;;;7.90;;
51556;SDS011;38766;53.194;5.532;2023-12-28T06:29:57;29.35;;;7.10;;
51556;SDS011;38766;53.194;5.532;2023-12-28T06:32:24;34.70;;;7.25;;
51556;SDS011;38766;53.194;5.532;2023-12-28T06:34:50;33.50;;;6.85;;
51556;SDS011;38766;53.194;5.532;2023-12-28T06:37:15;31.63;;;6.60;;
51556;SDS011;38766;53.194;5.532;2023-12-28T06:39:41;33.95;;;6.50;;
51556;SDS011;38766;53.194;5.532;2023-12-28T06:42:06;34.88;;;6.65;;
51556;SDS011;38766;53.194;5.532;2023-12-28T06:44:32;41.15;;;6.60;;
51556;SDS011;38766;53.194;5.532;2023-12-28T06:46:58;31.20;;;6.25;;
51556;SDS011;38766;53.194;5.532;2023-12-28T06:49:24;35.45;;;6.43;;
51556;SDS011;38766;53.194;5.532;2023-12-28T06:51:50;37.33;;;6.88;;
51556;SDS011;38766;53.194;5.532;2023-12-28T06:54:16;31.90;;;5.97;;
51556;SDS011;38766;53.194;5.532;2023-12-28T06:56:42;36.05;;;7.53;;
51556;SDS011;38766;53.194;5.532;2023-12-28T06:59:07;37.90;;;8.10;;
51556;SDS011;38766;53.194;5.532;2023-12-28T07:01:37;37.70;;;6.88;;
51556;SDS011;38766;53.194;5.532;2023-12-28T07:04:03;33.20;;;6.95;;
51556;SDS011;38766;53.194;5.532;2023-12-28T07:06:29;30.65;;;6.88;;
51556;SDS011;38766;53.194;5.532;2023-12-28T07:08:55;30.48;;;6.70;;
51556;SDS011;38766;53.194;5.532;2023-12-28T07:11:20;39.55;;;7.85;;
51556;SDS011;38766;53.194;5.532;2023-12-28T07:13:46;34.13;;;5.32;;
51556;SDS011;38766;53.194;5.532;2023-12-28T07:16:12;41.90;;;8.10;;
51556;SDS011;38766;53.194;5.532;2023-12-28T07:18:38;35.35;;;7.38;;
51556;SDS011;38766;53.194;5.532;2023-12-28T07:21:03;34.75;;;7.68;;
51556;SDS011;38766;53.194;5.532;2023-12-28T07:23:31;38.03;;;8.65;;
51556;SDS011;38766;53.194;5.532;2023-12-28T07:25:57;40.13;;;7.93;;
51556;SDS011;38766;53.194;5.532;2023-12-28T07:28:22;51.70;;;9.63;;
51556;SDS011;38766;53.194;5.532;2023-12-28T07:30:48;47.50;;;7.95;;
51556;SDS011;38766;53.194;5.532;2023-12-28T07:33:14;45.83;;;9.35;;
51556;SDS011;38766;53.194;5.532;2023-12-28T07:35:39;37.78;;;7.93;;
51556;SDS011;38766;53.194;5.532;2023-12-28T07:38:05;45.10;;;9.95;;
51556;SDS011;38766;53.194;5.532;2023-12-28T07:40:31;45.35;;;8.35;;
51556;SDS011;38766;53.194;5.532;2023-12-28T07:42:56;42.70;;;7.85;;
51556;SDS011;38766;53.194;5.532;2023-12-28T07:45:22;47.92;;;10.30;;
51556;SDS011;38766;53.194;5.532;2023-12-28T07:47:52;45.78;;;9.02;;
51556;SDS011;38766;53.194;5.532;2023-12-28T07:50:18;43.20;;;8.95;;
51556;SDS011;38766;53.194;5.532;2023-12-28T07:52:44;43.15;;;8.85;;
51556;SDS011;38766;53.194;5.532;2023-12-28T07:55:11;54.33;;;10.23;;
51556;SDS011;38766;53.194;5.532;2023-12-28T07:57:37;47.50;;;9.10;;
51556;SDS011;38766;53.194;5.532;2023-12-28T08:00:03;43.30;;;8.18;;
51556;SDS011;38766;53.194;5.532;2023-12-28T08:02:30;64.93;;;10.38;;
51556;SDS011;38766;53.194;5.532;2023-12-28T08:04:56;42.78;;;7.20;;
51556;SDS011;38766;53.194;5.532;2023-12-28T08:07:22;60.05;;;10.23;;
51556;SDS011;38766;53.194;5.532;2023-12-28T08:09:47;52.70;;;10.07;;
51556;SDS011;38766;53.194;5.532;2023-12-28T08:12:13;44.78;;;8.68;;
51556;SDS011;38766;53.194;5.532;2023-12-28T08:14:39;51.35;;;9.35;;
51556;SDS011;38766;53.194;5.532;2023-12-28T08:17:04;42.65;;;9.32;;
51556;SDS011;38766;53.194;5.532;2023-12-28T08:19:30;50.40;;;10.13;;
51556;SDS011;38766;53.194;5.532;2023-12-28T08:21:56;46.28;;;9.60;;
51556;SDS011;38766;53.194;5.532;2023-12-28T08:24:21;44.15;;;8.60;;
51556;SDS011;38766;53.194;5.532;2023-12-28T08:26:47;65.93;;;9.57;;
51556;SDS011;38766;53.194;5.532;2023-12-28T08:29:12;43.95;;;9.05;;
51556;SDS011;38766;53.194;5.532;2023-12-28T08:31:38;50.75;;;9.65;;
51556;SDS011;38766;53.194;5.532;2023-12-28T08:34:04;51.22;;;8.52;;
51556;SDS011;38766;53.194;5.532;2023-12-28T08:36:29;63.55;;;10.38;;
51556;SDS011;38766;53.194;5.532;2023-12-28T08:38:55;48.85;;;9.73;;
51556;SDS011;38766;53.194;5.532;2023-12-28T08:41:21;45.17;;;10.00;;
51556;SDS011;38766;53.194;5.532;2023-12-28T08:43:49;35.38;;;7.82;;
51556;SDS011;38766;53.194;5.532;2023-12-28T08:46:15;50.28;;;8.40;;
51556;SDS011;38766;53.194;5.532;2023-12-28T08:48:41;47.53;;;8.35;;
51556;SDS011;38766;53.194;5.532;2023-12-28T08:51:08;34.40;;;7.35;;
51556;SDS011;38766;53.194;5.532;2023-12-28T08:53:36;47.40;;;9.43;;
51556;SDS011;38766;53.194;5.532;2023-12-28T08:56:02;43.67;;;8.07;;
51556;SDS011;38766;53.194;5.532;2023-12-28T09:01:03;50.78;;;9.88;;
51556;SDS011;38766;53.194;5.532;2023-12-28T09:03:28;43.47;;;7.38;;
51556;SDS011;38766;53.194;5.532;2023-12-28T09:05:54;46.42;;;8.50;;
51556;SDS011;38766;53.194;5.532;2023-12-28T09:08:20;39.60;;;8.23;;
51556;SDS011;38766;53.194;5.532;2023-12-28T09:10:45;41.65;;;8.40;;
51556;SDS011;38766;53.194;5.532;2023-12-28T09:13:15;46.45;;;8.02;;
51556;SDS011;38766;53.194;5.532;2023-12-28T09:15:42;42.03;;;8.95;;
51556;SDS011;38766;53.194;5.532;2023-12-28T09:18:07;36.03;;;8.05;;
51556;SDS011;38766;53.194;5.532;2023-12-28T09:20:33;43.13;;;8.95;;
51556;SDS011;38766;53.194;5.532;2023-12-28T09:23:00;65.82;;;9.40;;
51556;SDS011;38766;53.194;5.532;2023-12-28T09:25:26;49.22;;;9.07;;
51556;SDS011;38766;53.194;5.532;2023-12-28T09:27:52;40.58;;;8.48;;
51556;SDS011;38766;53.194;5.532;2023-12-28T09:30:18;43.83;;;8.93;;
51556;SDS011;38766;53.194;5.532;2023-12-28T09:32:44;42.22;;;8.57;;
51556;SDS011;38766;53.194;5.532;2023-12-28T09:35:10;35.83;;;8.50;;
51556;SDS011;38766;53.194;5.532;2023-12-28T09:37:35;41.55;;;8.48;;
51556;SDS011;38766;53.194;5.532;2023-12-28T09:40:01;44.03;;;8.43;;
51556;SDS011;38766;53.194;5.532;2023-12-28T09:42:32;37.53;;;8.85;;
51556;SDS011;38766;53.194;5.532;2023-12-28T09:45:09;45.92;;;8.52;;
51556;SDS011;38766;53.194;5.532;2023-12-28T09:47:35;37.50;;;8.02;;
51556;SDS011;38766;53.194;5.532;2023-12-28T09:50:01;47.78;;;9.80;;
51556;SDS011;38766;53.194;5.532;2023-12-28T09:52:27;41.63;;;7.75;;
51556;SDS011;38766;53.194;5.532;2023-12-28T09:54:52;49.88;;;9.50;;
51556;SDS011;38766;53.194;5.532;2023-12-28T09:57:18;42.95;;;8.05;;
51556;SDS011;38766;53.194;5.532;2023-12-28T09:59:45;35.30;;;7.40;;
51556;SDS011;38766;53.194;5.532;2023-12-28T10:02:10;34.70;;;8.00;;
51556;SDS011;38766;53.194;5.532;2023-12-28T10:04:37;41.63;;;7.90;;
51556;SDS011;38766;53.194;5.532;2023-12-28T10:07:03;42.58;;;8.15;;
51556;SDS011;38766;53.194;5.532;2023-12-28T10:09:28;33.92;;;7.65;;
51556;SDS011;38766;53.194;5.532;2023-12-28T10:11:55;38.60;;;7.82;;
51556;SDS011;38766;53.194;5.532;2023-12-28T10:14:21;33.58;;;7.20;;
51556;SDS011;38766;53.194;5.532;2023-12-28T10:16:47;37.55;;;6.45;;
51556;SDS011;38766;53.194;5.532;2023-12-28T10:19:13;34.65;;;7.15;;
51556;SDS011;38766;53.194;5.532;2023-12-28T10:21:39;41.10;;;8.05;;
51556;SDS011;38766;53.194;5.532;2023-12-28T10:24:05;30.95;;;7.25;;
51556;SDS011;38766;53.194;5.532;2023-12-28T10:26:32;34.78;;;6.65;;
51556;SDS011;38766;53.194;5.532;2023-12-28T10:29:01;37.13;;;7.43;;
51556;SDS011;38766;53.194;5.532;2023-12-28T10:31:30;29.73;;;6.63;;
51556;SDS011;38766;53.194;5.532;2023-12-28T10:33:59;40.15;;;6.45;;
51556;SDS011;38766;53.194;5.532;2023-12-28T10:36:27;35.78;;;7.72;;
51556;SDS011;38766;53.194;5.532;2023-12-28T10:38:53;35.20;;;7.72;;
51556;SDS011;38766;53.194;5.532;2023-12-28T10:41:19;40.05;;;7.20;;
51556;SDS011;38766;53.194;5.532;2023-12-28T10:44:02;38.28;;;9.13;;
51556;SDS011;38766;53.194;5.532;2023-12-28T10:46:30;35.55;;;8.57;;
51556;SDS011;38766;53.194;5.532;2023-12-28T10:49:05;45.22;;;7.40;;
51556;SDS011;38766;53.194;5.532;2023-12-28T10:51:38;41.28;;;8.23;;
51556;SDS011;38766;53.194;5.532;2023-12-28T10:56:59;33.30;;;7.20;;
51556;SDS011;38766;53.194;5.532;2023-12-28T10:59:35;37.33;;;7.38;;
51556;SDS011;38766;53.194;5.532;2023-12-28T11:02:13;38.60;;;7.75;;
51556;SDS011;38766;53.194;5.532;2023-12-28T11:04:44;41.08;;;7.50;;
51556;SDS011;38766;53.194;5.532;2023-12-28T11:07:14;50.03;;;8.75;;
51556;SDS011;38766;53.194;5.532;2023-12-28T11:09:42;32.35;;;6.53;;
51556;SDS011;38766;53.194;5.532;2023-12-28T11:12:08;37.90;;;7.30;;
51556;SDS011;38766;53.194;5.532;2023-12-28T11:14:41;35.17;;;6.93;;
51556;SDS011;38766;53.194;5.532;2023-12-28T11:17:07;41.78;;;7.35;;
51556;SDS011;38766;53.194;5.532;2023-12-28T11:19:34;37.22;;;7.22;;
51556;SDS011;38766;53.194;5.532;2023-12-28T11:22:02;33.75;;;8.05;;
51556;SDS011;38766;53.194;5.532;2023-12-28T11:24:29;35.40;;;7.75;;
51556;SDS011;38766;53.194;5.532;2023-12-28T11:26:55;36.88;;;7.10;;
51556;SDS011;38766;53.194;5.532;2023-12-28T11:29:22;37.05;;;8.15;;
51556;SDS011;38766;53.194;5.532;2023-12-28T11:31:57;35.60;;;7.45;;
51556;SDS011;38766;53.194;5.532;2023-12-28T11:34:30;40.20;;;8.15;;
51556;SDS011;38766;53.194;5.532;2023-12-28T11:39:37;38.90;;;7.45;;
51556;SDS011;38766;53.194;5.532;2023-12-28T11:42:08;52.08;;;9.50;;
51556;SDS011;38766;53.194;5.532;2023-12-28T11:44:41;39.50;;;7.45;;
51556;SDS011;38766;53.194;5.532;2023-12-28T11:49:41;36.53;;;7.57;;
51556;SDS011;38766;53.194;5.532;2023-12-28T11:52:08;38.65;;;8.35;;
51556;SDS011;38766;53.194;5.532;2023-12-28T11:54:35;39.20;;;7.80;;
51556;SDS011;38766;53.194;5.532;2023-12-28T11:57:01;36.78;;;9.32;;
51556;SDS011;38766;53.194;5.532;2023-12-28T11:59:27;45.15;;;8.10;;
51556;SDS011;38766;53.194;5.532;2023-12-28T12:01:53;42.50;;;8.85;;
51556;SDS011;38766;53.194;5.532;2023-12-28T12:04:19;37.75;;;8.68;;
51556;SDS011;38766;53.194;5.532;2023-12-28T12:06:47;42.85;;;8.10;;
51556;SDS011;38766;53.194;5.532;2023-12-28T12:09:16;43.15;;;7.97;;
51556;SDS011;38766;53.194;5.532;2023-12-28T12:11:47;35.53;;;7.50;;
51556;SDS011;38766;53.194;5.532;2023-12-28T12:14:13;41.92;;;8.30;;
51556;SDS011;38766;53.194;5.532;2023-12-28T12:16:39;38.75;;;7.78;;
51556;SDS011;38766;53.194;5.532;2023-12-28T12:19:05;34.40;;;8.52;;
51556;SDS011;38766;53.194;5.532;2023-12-28T12:21:34;38.05;;;7.53;;
51556;SDS011;38766;53.194;5.532;2023-12-28T12:24:00;46.90;;;8.20;;
51556;SDS011;38766;53.194;5.532;2023-12-28T12:26:29;52.42;;;8.05;;
51556;SDS011;38766;53.194;5.532;2023-12-28T12:28:56;36.80;;;8.02;;
51556;SDS011;38766;53.194;5.532;2023-12-28T12:31:22;35.80;;;7.07;;
51556;SDS011;38766;53.194;5.532;2023-12-28T12:33:48;38.17;;;6.68;;
51556;SDS011;38766;53.194;5.532;2023-12-28T12:36:15;38.20;;;7.90;;
51556;SDS011;38766;53.194;5.532;2023-12-28T12:38:41;35.90;;;7.15;;
51556;SDS011;38766;53.194;5.532;2023-12-28T12:41:07;33.58;;;6.57;;
51556;SDS011;38766;53.194;5.532;2023-12-28T12:43:34;36.55;;;7.28;;
51556;SDS011;38766;53.194;5.532;2023-12-28T12:46:00;35.17;;;6.82;;
51556;SDS011;38766;53.194;5.532;2023-12-28T12:48:26;44.22;;;7.60;;
51556;SDS011;38766;53.194;5.532;2023-12-28T12:50:51;41.63;;;7.53;;
51556;SDS011;38766;53.194;5.532;2023-12-28T12:53:17;40.10;;;7.80;;
51556;SDS011;38766;53.194;5.532;2023-12-28T12:55:43;44.65;;;7.53;;
51556;SDS011;38766;53.194;5.532;2023-12-28T12:58:10;35.88;;;7.72;;
51556;SDS011;38766;53.194;5.532;2023-12-28T13:00:38;43.33;;;8.93;;
51556;SDS011;38766;53.194;5.532;2023-12-28T13:03:10;42.30;;;8.10;;
51556;SDS011;38766;53.194;5.532;2023-12-28T13:05:36;37.90;;;7.32;;
51556;SDS011;38766;53.194;5.532;2023-12-28T13:08:03;39.80;;;7.70;;
51556;SDS011;38766;53.194;5.532;2023-12-28T13:10:31;36.05;;;6.45;;
51556;SDS011;38766;53.194;5.532;2023-12-28T13:12:57;42.60;;;7.80;;
51556;SDS011;38766;53.194;5.532;2023-12-28T13:15:23;38.88;;;8.18;;
51556;SDS011;38766;53.194;5.532;2023-12-28T13:17:49;34.22;;;6.65;;
51556;SDS011;38766;53.194;5.532;2023-12-28T13:20:14;36.33;;;7.38;;
51556;SDS011;38766;53.194;5.532;2023-12-28T13:22:40;38.53;;;6.47;;
51556;SDS011;38766;53.194;5.532;2023-12-28T13:25:06;38.00;;;7.32;;
51556;SDS011;38766;53.194;5.532;2023-12-28T13:27:31;37.20;;;7.25;;
51556;SDS011;38766;53.194;5.532;2023-12-28T13:29:57;37.17;;;8.15;;
51556;SDS011;38766;53.194;5.532;2023-12-28T13:32:23;38.80;;;8.32;;
51556;SDS011;38766;53.194;5.532;2023-12-28T13:34:49;39.97;;;8.13;;
51556;SDS011;38766;53.194;5.532;2023-12-28T13:37:18;34.10;;;7.05;;
51556;SDS011;38766;53.194;5.532;2023-12-28T13:39:43;43.53;;;7.95;;
51556;SDS011;38766;53.194;5.532;2023-12-28T13:42:09;29.50;;;6.38;;
51556;SDS011;38766;53.194;5.532;2023-12-28T13:44:35;34.20;;;6.70;;
51556;SDS011;38766;53.194;5.532;2023-12-28T13:47:04;36.10;;;7.45;;
51556;SDS011;38766;53.194;5.532;2023-12-28T13:49:33;40.15;;;7.53;;
51556;SDS011;38766;53.194;5.532;2023-12-28T13:51:58;38.65;;;7.03;;
51556;SDS011;38766;53.194;5.532;2023-12-28T13:54:24;31.77;;;6.53;;
51556;SDS011;38766;53.194;5.532;2023-12-28T13:56:50;32.65;;;6.50;;
51556;SDS011;38766;53.194;5.532;2023-12-28T13:59:21;34.83;;;7.13;;
51556;SDS011;38766;53.194;5.532;2023-12-28T14:01:47;31.83;;;6.25;;
51556;SDS011;38766;53.194;5.532;2023-12-28T14:04:13;32.70;;;5.85;;
51556;SDS011;38766;53.194;5.532;2023-12-28T14:06:38;34.60;;;5.28;;
51556;SDS011;38766;53.194;5.532;2023-12-28T14:09:04;31.48;;;6.15;;
51556;SDS011;38766;53.194;5.532;2023-12-28T14:11:29;30.85;;;6.53;;
51556;SDS011;38766;53.194;5.532;2023-12-28T14:13:55;26.45;;;6.35;;
51556;SDS011;38766;53.194;5.532;2023-12-28T14:16:21;26.95;;;5.18;;
51556;SDS011;38766;53.194;5.532;2023-12-28T14:18:46;35.58;;;5.28;;
51556;SDS011;38766;53.194;5.532;2023-12-28T14:21:13;28.75;;;6.25;;
51556;SDS011;38766;53.194;5.532;2023-12-28T14:23:40;23.80;;;6.28;;
51556;SDS011;38766;53.194;5.532;2023-12-28T14:26:10;22.00;;;4.63;;
51556;SDS011;38766;53.194;5.532;2023-12-28T14:31:09;27.42;;;5.68;;
51556;SDS011;38766;53.194;5.532;2023-12-28T14:33:36;23.45;;;5.18;;
51556;SDS011;38766;53.194;5.532;2023-12-28T14:36:02;31.10;;;6.25;;
51556;SDS011;38766;53.194;5.532;2023-12-28T14:38:29;30.02;;;5.65;;
51556;SDS011;38766;53.194;5.532;2023-12-28T14:40:54;32.13;;;5.95;;
51556;SDS011;38766;53.194;5.532;2023-12-28T14:43:21;30.42;;;6.95;;
51556;SDS011;38766;53.194;5.532;2023-12-28T14:45:46;33.58;;;6.22;;